createdAt,value
2018-11-03T00:53:04.783Z,51.90
2018-11-03T00:55:38.686Z,51.10
2018-11-03T00:58:12.589Z,50.90
2018-11-03T01:00:46.542Z,50.50
2018-11-03T01:03:22.109Z,50.10
2018-11-03T01:05:56.298Z,49.20
2018-11-03T01:08:31.087Z,49.50
2018-11-03T01:11:05.476Z,49.50
2018-11-03T01:13:40.260Z,49.10
2018-11-03T01:16:14.412Z,49.60
2018-11-03T01:18:48.660Z,49.50
2018-11-03T01:21:22.420Z,48.90
2018-11-03T01:23:57.601Z,48.60
2018-11-03T01:26:31.166Z,48.70
2018-11-03T01:29:04.593Z,48.80
2018-11-03T01:31:38.057Z,48.50
2018-11-03T01:34:12.094Z,48.20
2018-11-03T01:36:46.478Z,47.80
2018-11-03T01:39:21.084Z,47.90
2018-11-03T01:41:55.492Z,47.40
2018-11-03T01:44:30.407Z,47.20
2018-11-03T01:47:04.250Z,47.40
2018-11-03T01:54:34.186Z,47.20
2018-11-03T01:57:08.045Z,47.70
2018-11-03T01:59:42.173Z,47.60
2018-11-03T02:02:17.231Z,47.70
2018-11-03T02:04:51.052Z,47.80
2018-11-03T02:07:25.263Z,47.40
2018-11-03T02:09:59.746Z,47.20
2018-11-03T02:12:34.677Z,47.20
2018-11-03T02:15:09.278Z,47.10
2018-11-03T02:17:43.833Z,47.00
2018-11-03T02:20:17.994Z,47.10
2018-11-03T02:22:52.250Z,47.10
2018-11-03T02:25:27.019Z,46.80
2018-11-03T02:28:02.152Z,46.30
2018-11-03T02:30:36.541Z,46.40
2018-11-03T02:33:11.211Z,47.10
2018-11-03T02:35:45.308Z,46.50
2018-11-03T02:38:19.148Z,45.90
2018-11-03T02:40:54.742Z,45.90
2018-11-03T02:43:28.830Z,46.00
2018-11-03T02:46:03.447Z,45.80
2018-11-03T02:48:38.355Z,45.50
2018-11-03T02:51:12.594Z,45.50
2018-11-03T02:53:46.608Z,44.90
2018-11-03T02:56:22.279Z,44.90
2018-11-03T02:58:56.474Z,44.30
2018-11-03T03:01:30.556Z,44.30
2018-11-03T03:04:04.917Z,44.30
2018-11-03T03:06:39.254Z,44.20
2018-11-03T03:09:13.569Z,44.20
2018-11-03T03:11:47.717Z,43.90
2018-11-03T03:14:20.808Z,44.00
2018-11-03T03:16:54.481Z,44.00
2018-11-03T03:19:28.988Z,43.80
2018-11-03T03:22:03.037Z,43.30
2018-11-03T03:24:36.964Z,42.60
2018-11-03T03:27:11.057Z,42.30
2018-11-03T03:29:45.251Z,42.30
2018-11-03T03:32:20.618Z,42.00
2018-11-03T03:34:54.332Z,42.50
2018-11-03T03:37:28.640Z,42.20
2018-11-03T03:40:02.503Z,42.10
2018-11-03T03:42:37.021Z,42.40
2018-11-03T03:45:12.259Z,42.20
2018-11-03T03:47:45.757Z,42.00
2018-11-03T03:50:19.743Z,42.30
2018-11-03T03:52:53.174Z,42.20
2018-11-03T03:55:26.952Z,41.90
2018-11-03T03:58:01.899Z,41.70
2018-11-03T04:00:35.428Z,41.80
2018-11-03T04:03:09.875Z,41.50
2018-11-03T04:05:43.980Z,41.60
2018-11-03T04:08:18.693Z,41.70
2018-11-03T04:10:52.597Z,41.80
2018-11-03T04:13:26.227Z,42.10
2018-11-03T04:16:00.095Z,43.20
2018-11-03T04:18:33.938Z,43.80
2018-11-03T04:21:08.261Z,44.70
2018-11-03T04:23:42.590Z,44.20
2018-11-03T04:26:16.270Z,43.90
2018-11-03T04:28:49.929Z,44.00
2018-11-03T04:31:24.937Z,44.20
2018-11-03T04:33:59.171Z,43.90
2018-11-03T04:36:33.160Z,44.40
2018-11-03T04:39:07.288Z,44.60
2018-11-03T04:46:40.881Z,44.50
2018-11-03T04:49:15.881Z,44.90
2018-11-03T04:51:49.877Z,45.30
2018-11-03T04:54:24.166Z,45.50
2018-11-03T04:56:58.073Z,45.00
2018-11-03T04:59:33.809Z,45.70
2018-11-03T05:02:07.990Z,45.80
2018-11-03T05:04:42.362Z,45.80
2018-11-03T05:07:16.212Z,46.30
2018-11-03T05:09:51.361Z,46.20
2018-11-03T05:12:27.313Z,46.40
2018-11-03T05:15:01.609Z,47.00
2018-11-03T05:17:35.261Z,47.50
2018-11-03T05:20:09.034Z,46.90
2018-11-03T05:22:43.060Z,46.60
2018-11-03T05:25:17.065Z,47.30
2018-11-03T05:27:51.766Z,46.90
2018-11-03T05:30:25.464Z,46.80
2018-11-03T05:32:59.592Z,46.60
2018-11-03T05:35:33.252Z,46.50
2018-11-03T05:38:07.104Z,46.40
2018-11-03T05:40:40.975Z,46.70
2018-11-03T05:43:14.858Z,46.60
2018-11-03T05:45:48.802Z,46.60
2018-11-03T05:48:23.609Z,46.70
2018-11-03T05:50:58.373Z,46.30
2018-11-03T05:53:33.370Z,46.20
2018-11-03T05:56:07.359Z,46.10
2018-11-03T05:58:41.762Z,46.20
2018-11-03T06:01:16.868Z,45.90
2018-11-03T06:03:51.564Z,46.10
2018-11-03T06:06:25.635Z,45.90
2018-11-03T06:09:00.264Z,45.90
2018-11-03T06:11:34.386Z,46.00
2018-11-03T06:14:08.897Z,46.10
2018-11-03T06:16:42.775Z,46.00
2018-11-03T06:19:16.650Z,45.70
2018-11-03T06:21:50.936Z,45.60
2018-11-03T06:24:24.876Z,45.70
2018-11-03T06:26:59.873Z,45.40
2018-11-03T06:29:33.951Z,45.40
2018-11-03T06:32:12.779Z,45.40
2018-11-03T06:34:46.468Z,44.90
2018-11-03T06:37:20.367Z,44.90
2018-11-03T06:39:54.042Z,45.10
2018-11-03T06:42:28.428Z,45.20
2018-11-03T06:45:02.115Z,45.00
2018-11-03T06:47:36.358Z,45.90
2018-11-03T06:50:11.219Z,45.10
2018-11-03T06:52:47.708Z,44.80
2018-11-03T06:55:21.712Z,45.20
2018-11-03T06:57:56.665Z,45.10
2018-11-03T07:00:31.916Z,44.90
2018-11-03T07:03:07.051Z,45.10
2018-11-03T07:05:43.163Z,44.90
2018-11-03T07:08:17.615Z,45.00
2018-11-03T07:10:52.920Z,45.00
2018-11-03T07:13:28.660Z,45.20
2018-11-03T07:16:04.690Z,44.80
2018-11-03T07:18:38.400Z,44.80
2018-11-03T07:21:12.679Z,44.80
2018-11-03T07:23:46.388Z,44.70
2018-11-03T07:26:20.681Z,44.80
2018-11-03T07:28:53.988Z,44.40
2018-11-03T07:31:28.015Z,44.50
2018-11-03T07:34:02.043Z,44.00
2018-11-03T07:36:36.715Z,44.20
2018-11-03T07:39:12.214Z,44.40
2018-11-03T07:41:46.201Z,44.20
2018-11-03T07:44:20.293Z,44.50
2018-11-03T07:46:53.840Z,44.70
2018-11-03T07:49:27.879Z,45.20
2018-11-03T07:52:01.897Z,45.10
2018-11-03T07:54:36.708Z,45.50
2018-11-03T07:57:11.317Z,45.90
2018-11-03T07:59:45.912Z,46.00
2018-11-03T08:02:19.988Z,45.90
2018-11-03T08:04:54.666Z,45.70
2018-11-03T08:07:29.391Z,45.60
2018-11-03T08:10:03.425Z,46.30
2018-11-03T08:12:37.135Z,47.10
2018-11-03T08:15:12.840Z,47.40
2018-11-03T08:17:46.548Z,47.50
2018-11-03T08:20:20.616Z,47.60
2018-11-03T08:22:56.002Z,47.70
2018-11-03T08:25:29.548Z,47.60
2018-11-03T08:28:03.558Z,47.70
2018-11-03T08:30:37.154Z,48.00
2018-11-03T08:33:11.329Z,48.10
2018-11-03T08:35:45.522Z,48.20
2018-11-03T08:38:19.781Z,48.60
2018-11-03T08:40:53.971Z,48.80
2018-11-03T08:43:28.894Z,48.80
2018-11-03T08:46:03.405Z,48.50
2018-11-03T08:48:37.528Z,48.40
2018-11-03T08:51:11.898Z,48.20
2018-11-03T08:53:45.570Z,48.00
2018-11-03T08:56:19.803Z,48.60
2018-11-03T08:58:54.018Z,48.70
2018-11-03T09:01:28.182Z,48.70
2018-11-03T09:04:01.891Z,48.90
2018-11-03T09:06:37.656Z,49.10
2018-11-03T09:09:11.697Z,49.30
2018-11-03T09:11:45.266Z,49.20
2018-11-03T09:14:19.100Z,49.20
2018-11-03T09:21:52.714Z,48.80
2018-11-03T09:24:26.281Z,48.80
2018-11-03T09:27:00.448Z,48.90
2018-11-03T09:29:34.102Z,49.00
2018-11-03T09:32:08.467Z,49.00
2018-11-03T09:34:42.567Z,49.20
2018-11-03T09:37:18.102Z,49.30
2018-11-03T09:39:51.881Z,49.40
2018-11-03T09:42:25.763Z,49.50
2018-11-03T09:44:59.959Z,49.30
2018-11-03T09:47:34.125Z,49.30
2018-11-03T09:50:08.220Z,49.30
2018-11-03T09:52:42.472Z,49.90
2018-11-03T09:55:19.129Z,49.50
2018-11-03T09:57:57.645Z,49.50
2018-11-03T10:00:33.294Z,49.50
2018-11-03T10:03:07.391Z,49.60
2018-11-03T10:05:41.083Z,49.60
2018-11-03T10:08:16.293Z,49.80
2018-11-03T10:10:50.291Z,49.90
2018-11-03T10:13:25.586Z,49.90
2018-11-03T10:15:59.863Z,50.00
2018-11-03T10:18:34.953Z,50.10
2018-11-03T10:21:11.295Z,50.00
2018-11-03T10:23:45.502Z,50.10
2018-11-03T10:26:19.309Z,50.10
2018-11-03T10:28:53.042Z,50.10
2018-11-03T10:31:27.646Z,50.10
2018-11-03T10:34:01.314Z,50.20
2018-11-03T10:36:35.355Z,50.30
2018-11-03T10:39:11.918Z,50.40
2018-11-03T10:41:45.712Z,50.40
2018-11-03T10:44:20.101Z,50.80
2018-11-03T10:46:54.211Z,50.60
2018-11-03T10:49:28.406Z,50.70
2018-11-03T10:52:03.074Z,50.80
2018-11-03T10:54:37.691Z,50.90
2018-11-03T10:57:12.728Z,50.80
2018-11-03T10:59:46.821Z,50.80
2018-11-03T11:02:24.787Z,50.90
2018-11-03T11:05:02.698Z,51.00
2018-11-03T11:07:41.103Z,51.10
2018-11-03T11:10:20.336Z,51.00
2018-11-03T11:12:54.563Z,51.20
2018-11-03T11:15:28.367Z,51.30
2018-11-03T11:18:03.451Z,52.10
2018-11-03T11:20:37.838Z,51.50
2018-11-03T11:23:14.492Z,51.60
2018-11-03T11:25:47.927Z,51.60
2018-11-03T11:28:21.992Z,51.90
2018-11-03T11:30:56.012Z,51.90
2018-11-03T11:33:29.737Z,52.10
2018-11-03T11:36:03.878Z,52.00
2018-11-03T11:38:37.735Z,52.10
2018-11-03T11:41:11.685Z,52.10
2018-11-03T11:43:45.779Z,52.30
2018-11-03T11:46:20.138Z,52.20
2018-11-03T11:48:54.337Z,52.20
2018-11-03T11:51:28.314Z,52.20
2018-11-03T11:54:02.281Z,52.20
2018-11-03T11:56:35.688Z,52.20
2018-11-03T11:59:09.088Z,52.20
2018-11-03T12:01:42.886Z,52.20
2018-11-03T12:04:16.679Z,52.10
2018-11-03T12:06:50.801Z,52.00
2018-11-03T12:09:25.739Z,52.10
2018-11-03T12:12:00.943Z,52.20
2018-11-03T12:14:34.754Z,52.40
2018-11-03T12:17:09.277Z,52.50
2018-11-03T12:19:43.300Z,52.50
2018-11-03T12:22:17.449Z,52.60
2018-11-03T12:24:52.742Z,52.50
2018-11-03T12:27:26.600Z,52.30
2018-11-03T12:30:01.674Z,52.40
2018-11-03T12:32:35.850Z,52.20
2018-11-03T12:35:10.098Z,52.20
2018-11-03T12:37:44.148Z,52.40
2018-11-03T12:40:18.647Z,52.40
2018-11-03T12:42:52.679Z,52.60
2018-11-03T12:45:26.812Z,52.60
2018-11-03T12:48:01.753Z,52.70
2018-11-03T12:50:35.639Z,52.70
2018-11-03T12:53:09.694Z,52.70
2018-11-03T12:55:43.053Z,52.80
2018-11-03T12:58:17.964Z,52.80
2018-11-03T13:00:52.222Z,52.90
2018-11-03T13:03:26.040Z,53.10
2018-11-03T13:05:59.840Z,53.10
2018-11-03T13:08:35.051Z,53.00
2018-11-03T13:11:08.975Z,53.10
2018-11-03T13:13:44.688Z,53.10
2018-11-03T13:16:18.749Z,52.80
2018-11-03T13:18:53.306Z,52.70
2018-11-03T13:21:27.160Z,52.70
2018-11-03T13:24:01.629Z,52.70
2018-11-03T13:26:35.552Z,52.60
2018-11-03T13:29:10.412Z,52.80
2018-11-03T13:31:44.330Z,52.80
2018-11-03T13:34:18.376Z,52.80
2018-11-03T13:36:51.965Z,52.80
2018-11-03T13:39:25.968Z,52.90
2018-11-03T13:41:59.743Z,53.00
2018-11-03T13:44:34.112Z,52.90
2018-11-03T13:47:08.119Z,53.10
2018-11-03T13:49:42.080Z,53.30
2018-11-03T13:52:15.882Z,53.30
2018-11-03T13:54:50.032Z,53.30
2018-11-03T13:57:23.881Z,53.30
2018-11-03T13:59:58.068Z,53.40
2018-11-03T14:02:33.441Z,53.40
2018-11-03T14:05:07.469Z,53.50
2018-11-03T14:07:42.464Z,53.40
2018-11-03T14:10:18.096Z,53.40
2018-11-03T14:12:51.593Z,53.40
2018-11-03T14:15:28.450Z,53.40
2018-11-03T14:18:02.357Z,53.30
2018-11-03T14:20:35.897Z,53.00
2018-11-03T14:23:10.929Z,52.80
2018-11-03T14:25:45.120Z,52.60
2018-11-03T14:28:18.844Z,52.40
2018-11-03T14:30:53.083Z,52.50
2018-11-03T14:33:26.995Z,52.50
2018-11-03T14:36:01.041Z,52.50
2018-11-03T14:38:36.150Z,52.40
2018-11-03T14:41:10.075Z,52.50
2018-11-03T14:43:44.097Z,52.50
2018-11-03T14:46:18.354Z,52.20
2018-11-03T14:48:52.651Z,52.20
2018-11-03T14:51:26.582Z,52.10
2018-11-03T14:54:00.914Z,52.10
2018-11-03T14:56:34.642Z,52.10
2018-11-03T14:59:08.818Z,52.20
2018-11-03T15:01:42.989Z,52.00
2018-11-03T15:04:17.100Z,51.70
2018-11-03T15:06:51.867Z,51.60
2018-11-03T15:09:25.592Z,51.90
2018-11-03T15:11:59.704Z,52.10
2018-11-03T15:14:34.396Z,52.40
2018-11-03T15:17:09.346Z,52.40
2018-11-03T15:19:43.696Z,52.40
2018-11-03T15:22:17.571Z,52.50
2018-11-03T15:24:51.695Z,52.50
2018-11-03T15:32:25.273Z,52.60
2018-11-03T15:34:59.036Z,52.60
2018-11-03T15:37:32.495Z,52.70
2018-11-03T15:40:06.320Z,52.80
2018-11-03T15:42:40.236Z,52.90
2018-11-03T15:45:16.875Z,52.90
2018-11-03T15:47:51.237Z,52.80
2018-11-03T15:50:25.029Z,52.90
2018-11-03T15:52:59.103Z,53.10
2018-11-03T15:55:32.738Z,53.00
2018-11-03T15:58:06.335Z,53.10
2018-11-03T16:00:40.497Z,53.30
2018-11-03T16:03:14.455Z,53.40
2018-11-03T16:05:48.142Z,54.10
2018-11-03T16:08:21.986Z,53.60
2018-11-03T16:10:55.755Z,53.50
2018-11-03T16:13:30.113Z,53.40
2018-11-03T16:16:03.795Z,53.10
2018-11-03T16:18:38.993Z,53.10
2018-11-03T16:21:12.469Z,52.80
2018-11-03T16:23:46.289Z,52.50
2018-11-03T16:26:20.911Z,52.30
2018-11-03T16:28:55.987Z,53.10
2018-11-03T16:31:30.149Z,52.20
2018-11-03T16:34:04.065Z,52.30
2018-11-03T16:36:38.225Z,52.30
2018-11-03T16:39:13.664Z,52.30
2018-11-03T16:41:47.849Z,52.30
2018-11-03T16:44:21.534Z,52.20
2018-11-03T16:46:56.557Z,52.40
2018-11-03T16:49:30.820Z,52.50
2018-11-03T16:52:04.508Z,52.60
2018-11-03T16:54:38.437Z,52.70
2018-11-03T16:57:12.456Z,52.90
2018-11-03T16:59:47.281Z,52.90
2018-11-03T17:02:21.791Z,52.90
2018-11-03T17:04:56.760Z,52.80
2018-11-03T17:07:30.394Z,52.80
2018-11-03T17:10:04.189Z,52.80
2018-11-03T17:12:38.306Z,52.90
2018-11-03T17:15:12.722Z,52.80
2018-11-03T17:17:46.266Z,52.90
2018-11-03T17:20:21.190Z,53.00
2018-11-03T17:22:55.040Z,53.10
2018-11-03T17:25:28.821Z,53.10
2018-11-03T17:28:02.505Z,53.10
2018-11-03T17:30:36.515Z,53.20
2018-11-03T17:33:10.265Z,53.30
2018-11-03T17:35:45.577Z,53.40
2018-11-03T17:38:19.208Z,53.40
2018-11-03T17:40:54.523Z,53.30
2018-11-03T17:43:29.003Z,53.30
2018-11-03T17:46:03.048Z,53.30
2018-11-03T17:48:38.679Z,53.30
2018-11-03T17:51:13.726Z,53.20
2018-11-03T17:53:47.737Z,53.30
2018-11-03T17:56:21.329Z,53.30
2018-11-03T17:58:56.431Z,53.30
2018-11-03T18:01:30.701Z,53.10
2018-11-03T18:04:04.722Z,53.10
2018-11-03T18:06:39.173Z,53.00
2018-11-03T18:09:14.350Z,53.00
2018-11-03T18:11:49.562Z,52.90
2018-11-03T18:14:23.577Z,53.00
2018-11-03T18:16:57.882Z,53.00
2018-11-03T18:19:32.134Z,52.90
2018-11-03T18:22:07.811Z,52.90
2018-11-03T18:24:41.742Z,52.90
2018-11-03T18:27:15.903Z,53.00
2018-11-03T18:29:51.057Z,53.00
2018-11-03T18:32:25.025Z,52.80
2018-11-03T18:34:59.335Z,52.80
2018-11-03T18:37:33.478Z,52.70
2018-11-03T18:40:08.578Z,52.70
2018-11-03T18:42:42.735Z,52.60
2018-11-03T18:45:19.713Z,52.70
2018-11-03T18:47:54.560Z,52.70
2018-11-03T18:50:28.075Z,53.30
2018-11-03T18:53:02.150Z,52.70
2018-11-03T18:55:36.269Z,52.60
2018-11-03T18:58:10.410Z,52.60
2018-11-03T19:00:43.975Z,52.60
2018-11-03T19:03:18.631Z,53.40
2018-11-03T19:05:52.909Z,52.70
2018-11-03T19:08:29.024Z,52.70
2018-11-03T19:11:04.328Z,52.70
2018-11-03T19:13:38.567Z,53.30
2018-11-03T19:16:13.490Z,52.70
2018-11-03T19:18:47.310Z,52.70
2018-11-03T19:21:21.433Z,52.70
2018-11-03T19:23:56.562Z,52.60
2018-11-03T19:26:30.284Z,52.60
2018-11-03T19:29:04.265Z,52.90
2018-11-03T19:31:39.023Z,52.60
2018-11-03T19:34:13.063Z,52.60
2018-11-03T19:36:47.181Z,52.60
2018-11-03T19:39:21.607Z,52.60
2018-11-03T19:41:56.004Z,52.70
2018-11-03T19:44:31.165Z,52.80
2018-11-03T19:47:06.136Z,52.80
2018-11-03T19:49:40.447Z,52.80
2018-11-03T19:52:14.680Z,53.00
2018-11-03T19:54:48.448Z,53.00
2018-11-03T19:57:22.326Z,52.90
2018-11-03T19:59:56.720Z,52.90
2018-11-03T20:02:31.095Z,53.00
2018-11-03T20:05:06.171Z,53.10
2018-11-03T20:07:40.260Z,53.20
2018-11-03T20:10:14.828Z,53.20
2018-11-03T20:12:48.811Z,53.30
2018-11-03T20:15:22.871Z,53.30
2018-11-03T20:17:57.040Z,53.40
2018-11-03T20:20:31.378Z,53.40
2018-11-03T20:23:06.140Z,53.30
2018-11-03T20:25:42.457Z,53.30
2018-11-03T20:28:16.717Z,53.30
2018-11-03T20:30:50.893Z,53.30
2018-11-03T20:33:24.878Z,53.30
2018-11-03T20:35:59.012Z,53.40
2018-11-03T20:38:32.916Z,53.60
2018-11-03T20:41:06.514Z,53.60
2018-11-03T20:43:41.012Z,54.30
2018-11-03T20:46:15.152Z,53.60
2018-11-03T20:48:50.544Z,53.60
2018-11-03T20:51:24.730Z,53.70
2018-11-03T20:53:59.482Z,53.70
2018-11-03T20:56:33.583Z,53.80
2018-11-03T20:59:07.596Z,53.90
2018-11-03T21:01:42.965Z,54.00
2018-11-03T21:04:18.103Z,54.20
2018-11-03T21:06:52.083Z,54.20
2018-11-03T21:09:26.236Z,54.20
2018-11-03T21:12:00.435Z,54.30
2018-11-03T21:14:35.531Z,54.30
2018-11-03T21:17:09.510Z,54.30
2018-11-03T21:19:43.810Z,54.40
2018-11-03T21:22:17.602Z,55.30
2018-11-03T21:24:51.994Z,54.50
2018-11-03T21:32:23.675Z,54.80
2018-11-03T21:34:57.505Z,55.50
2018-11-03T21:37:31.555Z,55.00
2018-11-03T21:40:05.658Z,55.00
2018-11-03T21:42:40.036Z,55.10
2018-11-03T21:45:14.354Z,55.00
2018-11-03T21:47:49.256Z,55.00
2018-11-03T21:50:23.258Z,55.00
2018-11-03T21:52:57.117Z,55.10
2018-11-03T21:55:31.336Z,55.00
2018-11-03T21:58:05.344Z,55.00
2018-11-03T22:00:39.107Z,54.90
2018-11-03T22:03:13.034Z,55.00
2018-11-03T22:05:47.676Z,54.90
2018-11-03T22:08:22.147Z,54.90
2018-11-03T22:10:56.395Z,55.00
2018-11-03T22:13:30.307Z,55.10
2018-11-03T22:16:04.418Z,55.00
2018-11-03T22:18:38.380Z,55.10
2018-11-03T22:21:13.007Z,55.10
2018-11-03T22:23:47.245Z,55.10
2018-11-03T22:26:21.517Z,55.10
2018-11-03T22:28:56.156Z,55.10
2018-11-03T22:31:30.114Z,55.10
2018-11-03T22:34:04.398Z,55.10
2018-11-03T22:36:38.443Z,55.20
2018-11-03T22:39:13.412Z,55.30
2018-11-03T22:41:47.931Z,55.30
2018-11-03T22:44:21.852Z,55.50
2018-11-03T22:46:55.962Z,55.50
2018-11-03T22:49:30.274Z,55.50
2018-11-03T22:52:08.549Z,55.60
2018-11-03T22:54:42.706Z,55.50
2018-11-03T22:57:16.809Z,55.60
2018-11-03T22:59:51.105Z,55.50
2018-11-03T23:02:24.742Z,55.50
2018-11-03T23:04:58.945Z,55.60
2018-11-03T23:07:34.255Z,55.70
2018-11-03T23:10:08.606Z,55.70
2018-11-03T23:12:42.253Z,55.90
2018-11-03T23:15:15.930Z,55.90
2018-11-03T23:17:49.957Z,56.00
2018-11-03T23:20:26.506Z,56.20
2018-11-03T23:23:01.820Z,56.30
2018-11-03T23:25:36.100Z,56.30
2018-11-03T23:28:10.747Z,56.40
2018-11-03T23:30:45.813Z,56.40
2018-11-03T23:33:20.863Z,56.50
2018-11-03T23:35:54.918Z,56.50
2018-11-03T23:38:29.163Z,56.50
2018-11-03T23:41:03.230Z,56.60
2018-11-03T23:43:37.182Z,56.70
2018-11-03T23:46:11.538Z,56.70
2018-11-03T23:48:46.300Z,56.80
2018-11-03T23:51:20.285Z,56.80
2018-11-03T23:53:56.412Z,56.90
2018-11-03T23:56:31.145Z,57.30
2018-11-03T23:59:05.577Z,58.20
